createdAt,value
2023-05-19T00:02:16.119Z,7.43
2023-05-19T00:04:43.854Z,7.17
2023-05-19T00:07:11.546Z,7.20
2023-05-19T00:09:39.126Z,7.70
2023-05-19T00:12:10.588Z,7.97
2023-05-19T00:14:38.186Z,8.37
2023-05-19T00:17:05.822Z,8.17
2023-05-19T00:19:33.509Z,8.13
2023-05-19T00:22:00.814Z,9.30
2023-05-19T00:24:28.680Z,9.30
2023-05-19T00:26:56.109Z,8.87
2023-05-19T00:29:23.878Z,8.83
2023-05-19T00:31:51.390Z,9.03
2023-05-19T00:34:18.843Z,9.20
2023-05-19T00:36:46.380Z,9.27
2023-05-19T00:39:14.689Z,9.13
2023-05-19T00:41:42.312Z,9.17
2023-05-19T00:44:10.330Z,9.13
2023-05-19T00:46:38.090Z,8.53
2023-05-19T00:49:05.785Z,9.33
2023-05-19T00:51:33.172Z,9.50
2023-05-19T00:54:00.528Z,8.90
2023-05-19T00:56:27.935Z,8.70
2023-05-19T00:58:55.696Z,9.20
2023-05-19T01:01:23.604Z,9.23
2023-05-19T01:03:51.411Z,9.07
2023-05-19T01:06:22.162Z,9.43
2023-05-19T01:08:51.391Z,9.20
2023-05-19T01:11:19.002Z,9.10
2023-05-19T01:13:46.587Z,9.63
2023-05-19T01:16:34.869Z,9.90
2023-05-19T01:19:43.536Z,10.03
2023-05-19T01:22:22.791Z,9.87
2023-05-19T01:25:29.046Z,10.33
2023-05-19T01:28:07.505Z,10.67
2023-05-19T01:30:40.681Z,10.40
2023-05-19T01:33:11.800Z,9.83
2023-05-19T01:35:41.477Z,10.60
2023-05-19T01:38:10.870Z,10.60
2023-05-19T01:40:41.918Z,10.77
2023-05-19T01:43:12.522Z,11.00
2023-05-19T01:45:40.513Z,11.33
2023-05-19T01:48:10.809Z,11.67
2023-05-19T01:50:40.728Z,12.03
2023-05-19T01:53:08.324Z,11.50
2023-05-19T01:55:41.830Z,11.77
2023-05-19T01:58:37.318Z,11.20
2023-05-19T02:01:42.547Z,11.90
2023-05-19T02:04:30.409Z,11.90
2023-05-19T02:07:02.445Z,12.37
2023-05-19T02:09:53.977Z,15.67
2023-05-19T02:12:51.404Z,14.90
2023-05-19T02:15:26.014Z,14.17
2023-05-19T02:17:55.687Z,12.77
2023-05-19T02:20:23.472Z,13.37
2023-05-19T02:22:50.870Z,13.87
2023-05-19T02:25:19.005Z,12.60
2023-05-19T02:27:46.459Z,13.07
2023-05-19T02:30:13.774Z,12.43
2023-05-19T02:32:41.285Z,12.80
2023-05-19T02:35:10.659Z,13.70
2023-05-19T02:37:38.601Z,12.90
2023-05-19T02:40:06.912Z,12.17
2023-05-19T02:42:34.461Z,13.13
2023-05-19T02:45:01.860Z,13.17
2023-05-19T02:47:29.405Z,13.80
2023-05-19T02:49:56.725Z,13.50
2023-05-19T02:52:24.312Z,13.40
2023-05-19T02:54:51.716Z,13.23
2023-05-19T02:57:19.085Z,12.43
2023-05-19T02:59:46.380Z,11.80
2023-05-19T03:02:13.805Z,12.43
2023-05-19T03:04:44.019Z,12.13
2023-05-19T03:07:13.300Z,12.03
2023-05-19T03:09:40.926Z,11.80
2023-05-19T03:12:08.495Z,11.37
2023-05-19T03:14:39.614Z,12.40
2023-05-19T03:17:10.860Z,11.30
2023-05-19T03:19:38.542Z,11.80
2023-05-19T03:22:06.728Z,11.57
2023-05-19T03:24:36.227Z,10.63
2023-05-19T03:27:06.160Z,11.37
2023-05-19T03:29:33.825Z,11.90
2023-05-19T03:32:01.911Z,12.53
2023-05-19T03:34:29.301Z,11.83
2023-05-19T03:36:57.738Z,12.97
2023-05-19T03:39:25.239Z,13.20
2023-05-19T03:41:52.714Z,12.57
2023-05-19T03:44:20.069Z,12.20
2023-05-19T03:46:47.586Z,13.80
2023-05-19T03:49:46.697Z,12.27
2023-05-19T03:52:38.705Z,12.83
2023-05-19T03:55:32.356Z,12.77
2023-05-19T03:57:59.729Z,12.47
2023-05-19T04:00:27.206Z,13.13
2023-05-19T04:02:55.243Z,12.17
2023-05-19T04:05:22.597Z,11.93
2023-05-19T04:07:50.121Z,12.80
2023-05-19T04:10:18.948Z,12.67
2023-05-19T04:12:48.008Z,11.40
2023-05-19T04:15:16.460Z,12.00
2023-05-19T04:17:44.042Z,12.07
2023-05-19T04:20:12.089Z,12.30
2023-05-19T04:22:39.419Z,11.77
2023-05-19T04:25:07.732Z,11.77
2023-05-19T04:27:39.288Z,11.10
2023-05-19T04:30:09.121Z,11.40
2023-05-19T04:32:37.810Z,10.53
2023-05-19T04:35:06.525Z,11.83
2023-05-19T04:37:38.358Z,10.93
2023-05-19T04:40:11.157Z,10.30
2023-05-19T04:42:41.644Z,10.73
2023-05-19T04:45:12.411Z,11.97
2023-05-19T04:47:42.424Z,11.93
2023-05-19T04:50:11.431Z,10.47
2023-05-19T04:52:38.740Z,9.70
2023-05-19T04:55:07.028Z,9.90
2023-05-19T04:57:34.738Z,6.67
2023-05-19T05:00:02.203Z,7.27
2023-05-19T05:02:43.779Z,6.83
2023-05-19T05:05:11.180Z,7.33
2023-05-19T05:07:38.674Z,7.07
2023-05-19T05:10:07.453Z,6.30
2023-05-19T05:12:36.056Z,7.60
2023-05-19T05:15:04.779Z,7.00
2023-05-19T05:17:32.450Z,6.70
2023-05-19T05:20:00.146Z,6.53
2023-05-19T05:22:28.323Z,6.47
2023-05-19T05:24:56.275Z,6.83
2023-05-19T05:27:23.703Z,7.03
2023-05-19T05:29:51.733Z,7.03
2023-05-19T05:32:20.562Z,7.30
2023-05-19T05:34:48.036Z,6.90
2023-05-19T05:37:15.946Z,6.90
2023-05-19T05:39:43.470Z,7.00
2023-05-19T05:42:11.247Z,7.77
2023-05-19T05:44:40.564Z,7.00
2023-05-19T05:47:08.561Z,6.87
2023-05-19T05:49:38.203Z,6.80
2023-05-19T05:52:08.098Z,5.67
2023-05-19T05:54:42.456Z,6.20
2023-05-19T05:57:10.802Z,6.10
2023-05-19T05:59:38.960Z,5.93
2023-05-19T06:02:07.182Z,5.97
2023-05-19T06:04:36.277Z,6.40
2023-05-19T06:07:04.124Z,6.03
2023-05-19T06:09:36.241Z,6.37
2023-05-19T06:12:05.272Z,6.77
2023-05-19T06:14:37.524Z,5.27
2023-05-19T06:17:23.121Z,6.70
2023-05-19T06:19:52.706Z,6.43
2023-05-19T06:22:20.001Z,6.33
2023-05-19T06:24:47.360Z,6.60
2023-05-19T06:27:14.708Z,5.80
2023-05-19T06:29:42.538Z,6.60
2023-05-19T06:32:10.174Z,6.10
2023-05-19T06:34:40.399Z,5.70
2023-05-19T06:37:07.969Z,6.10
2023-05-19T06:39:35.574Z,5.60
2023-05-19T06:42:04.445Z,6.60
2023-05-19T06:44:52.037Z,5.97
2023-05-19T06:47:19.837Z,6.23
2023-05-19T06:49:55.068Z,6.43
2023-05-19T06:52:25.603Z,5.93
2023-05-19T06:54:53.730Z,6.20
2023-05-19T06:57:21.617Z,5.80
2023-05-19T06:59:48.995Z,5.70
2023-05-19T07:02:16.526Z,6.03
2023-05-19T07:04:44.066Z,6.73
2023-05-19T07:07:14.598Z,5.77
2023-05-19T07:09:43.029Z,5.93
2023-05-19T07:12:10.538Z,7.43
2023-05-19T07:14:38.866Z,5.90
2023-05-19T07:17:06.738Z,6.13
2023-05-19T07:19:36.458Z,6.57
2023-05-19T07:22:04.627Z,6.67
2023-05-19T07:24:32.247Z,6.17
2023-05-19T07:26:59.528Z,5.93
2023-05-19T07:29:26.867Z,5.80
2023-05-19T07:31:57.825Z,5.60
2023-05-19T07:34:25.548Z,5.47
2023-05-19T07:36:52.941Z,6.13
2023-05-19T07:39:20.975Z,5.90
2023-05-19T07:41:54.314Z,6.07
2023-05-19T07:44:22.121Z,5.83
2023-05-19T07:46:49.509Z,5.40
2023-05-19T07:49:17.211Z,5.73
2023-05-19T07:51:44.567Z,6.27
2023-05-19T07:54:12.299Z,5.90
2023-05-19T07:56:39.615Z,5.67
2023-05-19T07:59:08.000Z,6.73
2023-05-19T08:01:35.425Z,6.43
2023-05-19T08:04:03.405Z,6.07
2023-05-19T08:06:31.746Z,6.40
2023-05-19T08:08:59.061Z,5.87
2023-05-19T08:11:26.716Z,6.50
2023-05-19T08:13:54.084Z,6.50
2023-05-19T08:16:21.587Z,6.40
2023-05-19T08:18:48.996Z,26.17
2023-05-19T08:21:16.789Z,5.80
2023-05-19T08:23:44.285Z,6.60
2023-05-19T08:26:11.582Z,6.00
2023-05-19T08:28:39.007Z,6.60
2023-05-19T08:31:06.445Z,6.87
2023-05-19T08:33:34.139Z,7.20
2023-05-19T08:36:02.069Z,6.60
2023-05-19T08:38:29.395Z,7.40
2023-05-19T08:40:58.127Z,8.30
2023-05-19T08:43:25.689Z,6.63
2023-05-19T08:45:54.286Z,7.03
2023-05-19T08:48:22.532Z,7.37
2023-05-19T08:51:09.614Z,6.87
2023-05-19T08:53:40.426Z,5.93
2023-05-19T08:56:22.829Z,6.00
2023-05-19T08:58:51.488Z,5.60
2023-05-19T09:01:20.372Z,5.80
2023-05-19T09:03:49.853Z,5.00
2023-05-19T09:06:17.594Z,4.87
2023-05-19T09:08:45.307Z,5.00
2023-05-19T09:11:12.953Z,5.77
2023-05-19T09:13:40.370Z,5.10
2023-05-19T09:16:08.183Z,4.97
2023-05-19T09:18:39.971Z,4.20
2023-05-19T09:21:07.928Z,4.80
2023-05-19T09:23:35.261Z,5.40
2023-05-19T09:26:05.174Z,4.80
2023-05-19T09:28:34.045Z,4.50
2023-05-19T09:31:11.547Z,4.40
2023-05-19T09:33:42.864Z,4.33
2023-05-19T09:36:12.555Z,4.07
2023-05-19T09:38:40.878Z,4.10
2023-05-19T09:41:09.150Z,4.37
2023-05-19T09:43:36.839Z,4.70
2023-05-19T09:46:14.726Z,4.53
2023-05-19T09:48:42.532Z,4.10
2023-05-19T09:51:10.752Z,3.97
2023-05-19T09:53:39.301Z,3.70
2023-05-19T09:56:09.680Z,3.73
2023-05-19T09:58:37.819Z,4.13
2023-05-19T10:01:06.567Z,3.90
2023-05-19T10:03:34.581Z,4.57
2023-05-19T10:06:03.799Z,5.00
2023-05-19T10:08:32.512Z,5.07
2023-05-19T10:11:00.728Z,4.50
2023-05-19T10:13:29.885Z,4.87
2023-05-19T10:15:59.698Z,4.63
2023-05-19T10:18:29.594Z,6.03
2023-05-19T10:20:58.276Z,5.97
2023-05-19T10:23:26.400Z,5.10
2023-05-19T10:25:59.067Z,5.67
2023-05-19T10:28:32.420Z,6.33
2023-05-19T10:31:01.521Z,5.93
2023-05-19T10:34:11.265Z,6.43
2023-05-19T10:36:58.029Z,5.33
2023-05-19T10:39:33.023Z,5.70
2023-05-19T10:42:14.154Z,5.20
2023-05-19T10:45:00.566Z,5.00
2023-05-19T10:47:28.227Z,5.23
2023-05-19T10:49:56.116Z,4.20
2023-05-19T10:52:30.141Z,4.10
2023-05-19T10:54:58.507Z,4.50
2023-05-19T10:57:32.255Z,4.23
2023-05-19T11:00:11.294Z,4.27
2023-05-19T11:02:42.963Z,4.43
2023-05-19T11:05:16.667Z,3.87
2023-05-19T11:07:54.544Z,3.50
2023-05-19T11:10:25.422Z,3.73
2023-05-19T11:12:53.035Z,3.50
2023-05-19T11:15:26.015Z,3.80
2023-05-19T11:17:54.203Z,4.13
2023-05-19T11:20:27.227Z,4.13
2023-05-19T11:23:05.699Z,4.03
2023-05-19T11:25:51.427Z,3.50
2023-05-19T11:28:20.992Z,3.10
2023-05-19T11:30:51.849Z,3.63
2023-05-19T11:33:21.086Z,3.30
2023-05-19T11:35:50.516Z,3.27
2023-05-19T11:38:20.235Z,3.23
2023-05-19T11:40:50.059Z,3.03
2023-05-19T11:43:17.549Z,3.20
2023-05-19T11:45:45.859Z,3.33
2023-05-19T11:48:14.045Z,3.53
2023-05-19T11:50:42.277Z,3.70
2023-05-19T11:53:13.269Z,3.70
2023-05-19T11:55:47.495Z,3.63
2023-05-19T11:58:15.236Z,3.43
2023-05-19T12:00:46.327Z,3.20
2023-05-19T12:03:13.986Z,3.77
2023-05-19T12:05:48.185Z,3.73
2023-05-19T12:08:18.514Z,3.33
2023-05-19T12:10:50.584Z,3.57
2023-05-19T12:13:19.437Z,3.27
2023-05-19T12:15:46.807Z,2.80
2023-05-19T12:18:14.376Z,2.50
2023-05-19T12:20:42.229Z,2.53
2023-05-19T12:23:09.887Z,2.83
2023-05-19T12:25:38.419Z,2.93
2023-05-19T12:28:05.845Z,2.17
2023-05-19T12:30:34.780Z,2.90
2023-05-19T12:33:03.302Z,2.70
2023-05-19T12:35:33.822Z,2.20
2023-05-19T12:38:05.548Z,2.53
2023-05-19T12:40:37.085Z,2.97
2023-05-19T12:43:06.750Z,2.63
2023-05-19T12:45:38.549Z,2.90
2023-05-19T12:48:12.003Z,3.00
2023-05-19T12:50:39.730Z,2.50
2023-05-19T12:53:14.788Z,2.53
2023-05-19T12:55:44.646Z,2.60
2023-05-19T12:58:12.688Z,2.07
2023-05-19T13:00:45.686Z,2.73
2023-05-19T13:03:19.038Z,2.50
2023-05-19T13:05:48.398Z,2.40
2023-05-19T13:08:18.166Z,2.80
2023-05-19T13:10:47.398Z,1.83
2023-05-19T13:13:15.302Z,2.57
2023-05-19T13:15:44.459Z,3.10
2023-05-19T13:18:12.878Z,2.60
2023-05-19T13:20:41.822Z,2.67
2023-05-19T13:23:13.459Z,1.63
2023-05-19T13:25:42.266Z,2.20
2023-05-19T13:28:10.454Z,1.60
2023-05-19T13:30:40.050Z,2.13
2023-05-19T13:33:08.213Z,2.53
2023-05-19T13:35:39.054Z,2.40
2023-05-19T13:38:08.101Z,2.00
2023-05-19T13:40:35.604Z,2.10
2023-05-19T13:43:04.026Z,1.93
2023-05-19T13:45:31.679Z,1.60
2023-05-19T13:47:59.072Z,1.80
2023-05-19T13:50:26.666Z,1.50
2023-05-19T13:52:54.251Z,1.53
2023-05-19T13:55:22.869Z,1.43
2023-05-19T13:57:50.896Z,1.83
2023-05-19T14:00:19.471Z,1.97
2023-05-19T14:02:47.212Z,1.73
2023-05-19T14:05:14.668Z,1.90
2023-05-19T14:07:42.608Z,1.80
2023-05-19T14:10:11.120Z,1.80
2023-05-19T14:12:55.029Z,1.57
2023-05-19T14:15:26.953Z,1.60
2023-05-19T14:17:54.606Z,2.03
2023-05-19T14:20:22.364Z,3.43
2023-05-19T14:22:51.252Z,4.47
2023-05-19T14:25:19.537Z,4.00
2023-05-19T14:27:48.708Z,3.60
2023-05-19T14:30:19.530Z,5.20
2023-05-19T14:32:47.605Z,5.17
2023-05-19T14:35:17.102Z,4.60
2023-05-19T14:37:44.941Z,4.93
2023-05-19T14:40:13.279Z,2.90
2023-05-19T14:42:40.773Z,5.33
2023-05-19T14:45:08.890Z,4.90
2023-05-19T14:47:36.781Z,5.07
2023-05-19T14:50:04.523Z,5.27
2023-05-19T14:52:32.313Z,3.70
2023-05-19T14:55:00.620Z,3.50
2023-05-19T14:57:28.377Z,2.80
2023-05-19T14:59:56.028Z,2.83
2023-05-19T15:02:23.341Z,3.10
2023-05-19T15:04:51.088Z,2.60
2023-05-19T15:07:18.824Z,2.80
2023-05-19T15:09:46.220Z,3.10
2023-05-19T15:12:13.585Z,3.17
2023-05-19T15:14:40.976Z,3.00
2023-05-19T15:17:08.528Z,3.40
2023-05-19T15:19:35.989Z,5.10
2023-05-19T15:22:03.305Z,5.97
2023-05-19T15:24:30.620Z,5.50
2023-05-19T15:26:58.031Z,3.83
2023-05-19T15:29:27.862Z,3.57
2023-05-19T15:31:56.150Z,6.73
2023-05-19T15:34:23.600Z,8.90
2023-05-19T15:36:52.020Z,4.30
2023-05-19T15:39:33.684Z,3.97
2023-05-19T15:42:01.235Z,4.03
2023-05-19T15:44:29.172Z,4.40
2023-05-19T15:46:56.561Z,4.80
2023-05-19T15:49:25.270Z,4.50
2023-05-19T15:51:52.638Z,4.30
2023-05-19T15:54:20.357Z,4.50
2023-05-19T15:56:47.738Z,4.47
2023-05-19T15:59:15.138Z,4.77
2023-05-19T16:01:42.780Z,4.77
2023-05-19T16:04:11.536Z,5.90
2023-05-19T16:06:39.188Z,6.17
2023-05-19T16:09:06.836Z,6.87
2023-05-19T16:11:34.571Z,5.87
2023-05-19T16:14:01.969Z,6.27
2023-05-19T16:16:29.493Z,5.00
2023-05-19T16:18:57.294Z,6.10
2023-05-19T16:21:24.916Z,5.00
2023-05-19T16:23:52.440Z,6.17
2023-05-19T16:26:19.778Z,4.60
2023-05-19T16:28:47.135Z,5.87
2023-05-19T16:31:14.485Z,5.20
2023-05-19T16:33:42.016Z,6.50
2023-05-19T16:36:09.668Z,8.10
2023-05-19T16:38:37.268Z,7.00
2023-05-19T16:41:06.900Z,12.37
2023-05-19T16:43:36.424Z,9.60
2023-05-19T16:46:05.607Z,4.03
2023-05-19T16:48:33.029Z,3.53
2023-05-19T16:51:00.489Z,3.57
2023-05-19T16:53:28.074Z,3.33
2023-05-19T16:55:55.645Z,3.93
2023-05-19T16:58:25.547Z,3.70
2023-05-19T17:00:53.407Z,3.90
2023-05-19T17:03:21.053Z,4.30
2023-05-19T17:05:48.725Z,3.27
2023-05-19T17:08:16.596Z,3.37
2023-05-19T17:10:44.916Z,3.20
2023-05-19T17:13:12.798Z,3.37
2023-05-19T17:15:42.282Z,3.67
2023-05-19T17:18:12.433Z,3.83
2023-05-19T17:20:40.014Z,4.30
2023-05-19T17:23:08.342Z,4.90
2023-05-19T17:25:35.619Z,5.07
2023-05-19T17:28:03.312Z,5.20
2023-05-19T17:30:31.058Z,5.10
2023-05-19T17:32:59.377Z,4.97
2023-05-19T17:35:28.443Z,4.93
2023-05-19T17:37:56.028Z,7.43
2023-05-19T17:40:23.352Z,6.50
2023-05-19T17:42:50.768Z,4.03
2023-05-19T17:45:18.268Z,3.80
2023-05-19T17:47:45.883Z,3.97
2023-05-19T17:50:13.216Z,3.83
2023-05-19T17:52:40.937Z,3.37
2023-05-19T17:55:09.159Z,3.77
2023-05-19T17:57:38.591Z,3.30
2023-05-19T18:00:07.662Z,3.50
2023-05-19T18:02:36.186Z,3.63
2023-05-19T18:05:04.259Z,3.50
2023-05-19T18:07:32.695Z,3.30
2023-05-19T18:10:01.624Z,3.17
2023-05-19T18:12:28.944Z,3.13
2023-05-19T18:14:56.632Z,3.10
2023-05-19T18:17:24.359Z,3.40
2023-05-19T18:19:51.802Z,3.00
2023-05-19T18:22:19.148Z,3.07
2023-05-19T18:24:46.624Z,3.40
2023-05-19T18:27:13.941Z,2.90
2023-05-19T18:29:42.686Z,3.53
2023-05-19T18:32:10.014Z,3.27
2023-05-19T18:34:37.484Z,3.33
2023-05-19T18:37:05.012Z,3.60
2023-05-19T18:39:32.327Z,5.53
2023-05-19T18:41:59.722Z,4.30
2023-05-19T18:44:27.378Z,5.30
2023-05-19T18:46:54.834Z,5.20
2023-05-19T18:49:24.836Z,6.03
2023-05-19T18:51:52.487Z,7.17
2023-05-19T18:54:21.793Z,6.30
2023-05-19T18:56:49.124Z,5.00
2023-05-19T18:59:16.617Z,5.93
2023-05-19T19:01:44.033Z,6.00
2023-05-19T19:04:11.610Z,6.83
2023-05-19T19:06:39.163Z,6.13
2023-05-19T19:09:06.672Z,6.27
2023-05-19T19:11:33.977Z,5.70
2023-05-19T19:14:01.526Z,6.10
2023-05-19T19:16:28.942Z,5.73
2023-05-19T19:18:56.534Z,5.70
2023-05-19T19:21:24.208Z,6.23
2023-05-19T19:23:54.685Z,5.83
2023-05-19T19:26:27.350Z,5.80
2023-05-19T19:28:55.998Z,6.87
2023-05-19T19:31:23.831Z,5.70
2023-05-19T19:33:51.421Z,7.43
2023-05-19T19:36:18.765Z,7.93
2023-05-19T19:38:46.277Z,9.63
2023-05-19T19:41:13.652Z,8.73
2023-05-19T19:43:40.947Z,9.97
2023-05-19T19:46:09.298Z,11.90
2023-05-19T19:48:37.320Z,12.43
2023-05-19T19:51:05.453Z,10.73
2023-05-19T19:53:32.976Z,9.70
2023-05-19T19:56:04.959Z,5.73
2023-05-19T19:58:32.324Z,7.77
2023-05-19T20:01:02.380Z,6.67
2023-05-19T20:03:30.656Z,6.00
2023-05-19T20:05:58.181Z,6.17
2023-05-19T20:08:26.716Z,6.20
2023-05-19T20:10:54.373Z,5.90
2023-05-19T20:13:22.120Z,6.17
2023-05-19T20:15:49.571Z,5.77
2023-05-19T20:18:17.048Z,6.07
2023-05-19T20:20:44.449Z,6.23
2023-05-19T20:23:13.327Z,5.60
2023-05-19T20:25:51.011Z,5.67
2023-05-19T20:28:26.243Z,5.70
2023-05-19T20:30:53.563Z,6.00
2023-05-19T20:33:21.367Z,6.07
2023-05-19T20:35:48.711Z,5.73
2023-05-19T20:38:16.180Z,6.00
2023-05-19T20:40:43.546Z,7.03
2023-05-19T20:43:10.859Z,7.97
2023-05-19T20:45:38.348Z,7.03
2023-05-19T20:48:06.472Z,7.30
2023-05-19T20:50:33.986Z,7.23
2023-05-19T20:53:01.488Z,7.63
2023-05-19T20:55:29.418Z,7.60
2023-05-19T20:57:56.869Z,8.20
2023-05-19T21:00:24.357Z,7.80
2023-05-19T21:02:51.681Z,8.53
2023-05-19T21:05:19.707Z,9.10
2023-05-19T21:07:47.177Z,11.57
2023-05-19T21:10:14.673Z,8.77
2023-05-19T21:12:42.018Z,10.40
2023-05-19T21:15:10.274Z,8.67
2023-05-19T21:17:37.637Z,7.60
2023-05-19T21:20:05.920Z,7.80
2023-05-19T21:22:35.746Z,7.60
2023-05-19T21:25:03.766Z,7.33
2023-05-19T21:27:32.871Z,7.40
2023-05-19T21:30:00.320Z,8.07
2023-05-19T21:32:29.532Z,7.73
2023-05-19T21:34:56.939Z,8.87
2023-05-19T21:37:24.604Z,8.50
2023-05-19T21:39:52.021Z,9.37
2023-05-19T21:42:19.549Z,10.00
2023-05-19T21:44:47.023Z,7.93
2023-05-19T21:47:14.591Z,7.33
2023-05-19T21:49:42.338Z,7.53
2023-05-19T21:52:10.132Z,8.73
2023-05-19T21:54:37.903Z,8.10
2023-05-19T21:57:05.605Z,7.70
2023-05-19T21:59:32.910Z,7.57
2023-05-19T22:02:00.358Z,8.60
2023-05-19T22:04:31.536Z,7.63
2023-05-19T22:06:59.013Z,7.57
2023-05-19T22:09:26.515Z,7.80
2023-05-19T22:11:53.878Z,8.57
2023-05-19T22:14:21.259Z,9.43
2023-05-19T22:16:48.674Z,7.90
2023-05-19T22:19:16.522Z,8.37
2023-05-19T22:21:43.969Z,8.30
2023-05-19T22:24:11.357Z,7.87
2023-05-19T22:26:42.538Z,8.83
2023-05-19T22:29:15.119Z,8.03
2023-05-19T22:31:42.618Z,8.33
2023-05-19T22:34:12.895Z,8.13
2023-05-19T22:36:41.509Z,8.43
2023-05-19T22:39:08.947Z,8.33
2023-05-19T22:41:36.321Z,9.07
2023-05-19T22:44:03.745Z,8.40
2023-05-19T22:46:31.216Z,8.50
2023-05-19T22:48:58.648Z,9.03
2023-05-19T22:51:26.648Z,8.80
2023-05-19T22:53:54.484Z,7.77
2023-05-19T22:56:22.529Z,8.13
2023-05-19T22:58:49.905Z,8.57
2023-05-19T23:01:17.440Z,7.63
2023-05-19T23:03:45.447Z,7.63
2023-05-19T23:06:12.897Z,7.97
2023-05-19T23:08:40.481Z,8.93
2023-05-19T23:11:08.255Z,8.80
2023-05-19T23:13:35.555Z,7.80
2023-05-19T23:16:03.098Z,7.57
2023-05-19T23:18:30.544Z,7.73
2023-05-19T23:20:57.836Z,7.93
2023-05-19T23:23:26.075Z,9.03
2023-05-19T23:25:55.498Z,7.57
2023-05-19T23:28:22.895Z,7.30
2023-05-19T23:30:53.486Z,7.87
2023-05-19T23:33:21.156Z,8.27
2023-05-19T23:35:49.038Z,10.50
2023-05-19T23:38:16.432Z,9.20
2023-05-19T23:40:44.365Z,9.20
2023-05-19T23:43:12.086Z,8.80
2023-05-19T23:45:39.835Z,10.23
2023-05-19T23:48:07.611Z,11.83
2023-05-19T23:50:35.150Z,11.57
2023-05-19T23:53:03.005Z,9.50
2023-05-19T23:55:30.660Z,7.17
2023-05-19T23:57:58.054Z,7.33
